Time;durP1;ratioP1;P1;durP2;ratioP2;P2;SDS_P1;SDS_P2;PMS_P1;PMS_P2;Temp;Humidity;BMP_temperature;BMP_pressure;BME280_temperature;BME280_humidity;BME280_pressure;Samples;Min_cycle;Max_cycle;Signal;HPM_P1;HPM_P2
2023/06/25 00:00:44;;;;;;;28.33;22.27;;;;;;;17.22;100.00;101846.59;5054482;28;20029;-46
2023/06/25 00:03:10;;;;;;;34.47;22.83;;;;;;;17.04;100.00;101854.03;5055106;28;20037;-47
2023/06/25 00:05:36;;;;;;;37.47;24.75;;;;;;;16.97;100.00;101850.44;5055161;28;20025;-45
2023/06/25 00:08:01;;;;;;;37.95;26.23;;;;;;;17.01;100.00;101846.19;5054953;28;20036;-47
2023/06/25 00:10:26;;;;;;;33.85;24.95;;;;;;;16.91;100.00;101842.50;5054860;28;20534;-47
2023/06/25 00:12:51;;;;;;;36.95;26.27;;;;;;;17.01;100.00;101836.63;5055294;28;20076;-48
2023/06/25 00:15:17;;;;;;;31.52;22.85;;;;;;;16.95;100.00;101839.13;5054767;28;20105;-44
2023/06/25 00:17:47;;;;;;;33.33;24.15;;;;;;;16.78;100.00;101834.44;5054708;28;20426;-47
2023/06/25 00:20:15;;;;;;;34.20;25.15;;;;;;;16.61;100.00;101841.88;5055033;28;20029;-47
2023/06/25 00:22:41;;;;;;;36.10;25.15;;;;;;;16.56;100.00;101843.53;5053966;28;20393;-47
2023/06/25 00:25:08;;;;;;;33.97;25.50;;;;;;;16.56;100.00;101843.53;5054986;28;20045;-48
2023/06/25 00:27:33;;;;;;;35.00;25.45;;;;;;;16.57;100.00;101836.59;5054777;28;20079;-44
2023/06/25 00:30:00;;;;;;;33.05;24.88;;;;;;;16.48;100.00;101841.63;5054332;28;20057;-47
2023/06/25 00:32:25;;;;;;;33.53;23.95;;;;;;;16.52;100.00;101830.44;5054296;28;20481;-47
2023/06/25 00:34:57;;;;;;;30.45;23.73;;;;;;;16.52;100.00;101831.28;5054203;28;20029;-47
2023/06/25 00:37:22;;;;;;;32.10;24.35;;;;;;;16.58;100.00;101830.56;5054182;28;20107;-45
2023/06/25 00:39:48;;;;;;;37.58;23.85;;;;;;;16.46;100.00;101824.25;5054680;28;20540;-48
2023/06/25 00:42:15;;;;;;;33.08;24.08;;;;;;;16.44;100.00;101825.94;5054311;28;20025;-42
2023/06/25 00:44:40;;;;;;;39.47;27.50;;;;;;;16.44;100.00;101828.53;5054381;28;20036;-46
2023/06/25 00:47:16;;;;;;;34.70;26.00;;;;;;;16.41;100.00;101818.06;5054730;28;20025;-45
2023/06/25 00:49:43;;;;;;;34.15;25.13;;;;;;;16.38;100.00;101822.31;5053716;28;20028;-44
2023/06/25 00:52:11;;;;;;;34.57;25.60;;;;;;;16.38;100.00;101818.00;5054310;28;20021;-46
2023/06/25 00:54:40;;;;;;;;;;;;;;;16.44;100.00;101820.72;5054672;28;20025;-44
2023/06/25 00:57:07;;;;;;;34.50;24.38;;;;;;;16.20;100.00;101822.81;5053885;28;20380;-47
2023/06/25 00:59:35;;;;;;;38.85;29.00;;;;;;;16.17;100.00;101814.94;5053940;28;20041;-43
2023/06/25 01:02:14;;;;;;;43.67;30.52;;;;;;;16.22;100.00;101810.72;5054413;28;20021;-43
2023/06/25 01:04:46;;;;;;;39.78;30.13;;;;;;;16.22;100.00;101811.59;5053473;28;20029;-46
2023/06/25 01:07:17;;;;;;;37.63;28.35;;;;;;;16.20;100.00;101815.88;5054525;28;20026;-43
2023/06/25 01:09:50;;;;;;;38.17;27.13;;;;;;;16.06;100.00;101806.88;5054174;28;20029;-43
2023/06/25 01:12:15;;;;;;;39.58;29.88;;;;;;;16.06;100.00;101801.69;5053537;28;20036;-45
2023/06/25 01:14:40;;;;;;;45.08;32.03;;;;;;;16.08;100.00;101802.63;5053768;28;20033;-49
2023/06/25 01:17:07;;;;;;;40.42;31.70;;;;;;;16.16;100.00;101801.06;5054019;28;20039;-42
2023/06/25 01:19:32;;;;;;;37.40;28.13;;;;;;;16.04;100.00;101801.66;5053233;28;20067;-45
2023/06/25 01:22:07;;;;;;;37.10;28.17;;;;;;;15.96;100.00;101803.22;5053522;28;20116;-48
2023/06/25 01:24:34;;;;;;;38.53;28.27;;;;;;;15.89;100.00;101796.13;5053197;28;20163;-47
2023/06/25 01:27:00;;;;;;;44.38;32.00;;;;;;;15.87;100.00;101792.59;5053521;28;20491;-47
2023/06/25 01:29:26;;;;;;;44.03;32.30;;;;;;;15.89;100.00;101796.97;5053675;28;20024;-47
2023/06/25 01:31:51;;;;;;;38.13;29.05;;;;;;;15.86;100.00;101786.53;5053326;28;20032;-48
2023/06/25 01:34:21;;;;;;;34.78;27.55;;;;;;;15.86;100.00;101789.13;5053444;28;20029;-46
2023/06/25 01:36:49;;;;;;;37.65;27.98;;;;;;;15.77;100.00;101787.16;5053302;28;20357;-43
2023/06/25 01:39:16;;;;;;;38.97;28.70;;;;;;;15.80;100.00;101779.44;5052960;28;20493;-46
2023/06/25 01:41:45;;;;;;;39.13;29.45;;;;;;;15.71;100.00;101783.53;5052994;28;20075;-47
2023/06/25 01:44:15;;;;;;;38.35;29.67;;;;;;;15.69;100.00;101777.44;5053637;28;20021;-42
2023/06/25 01:46:41;;;;;;;41.90;31.67;;;;;;;15.68;100.00;101773.94;5052026;28;20021;-44
2023/06/25 01:49:06;;;;;;;43.05;31.15;;;;;;;15.67;100.00;101772.19;5053050;28;20408;-45
2023/06/25 01:51:31;;;;;;;42.67;31.50;;;;;;;15.67;100.00;101769.59;5053028;28;20025;-45
2023/06/25 01:53:58;;;;;;;44.25;32.53;;;;;;;15.62;100.00;101777.28;5052681;28;20028;-45
2023/06/25 01:56:23;;;;;;;47.42;34.60;;;;;;;15.63;100.00;101759.97;5052924;28;20029;-44
2023/06/25 01:58:52;;;;;;;45.13;33.53;;;;;;;15.58;100.00;101759.88;5053407;28;20021;-46
2023/06/25 02:01:21;;;;;;;44.53;34.28;;;;;;;15.60;100.00;101760.78;5052696;28;20025;-46
2023/06/25 02:03:46;;;;;;;47.38;35.40;;;;;;;15.57;100.00;101762.41;5052540;28;20024;-48
2023/06/25 02:06:12;;;;;;;42.15;33.45;;;;;;;15.57;100.00;101752.91;5053151;28;20147;-47
2023/06/25 02:08:37;;;;;;;43.00;33.90;;;;;;;15.55;100.00;101751.13;5052058;28;20071;-47
2023/06/25 02:11:03;;;;;;;40.25;31.50;;;;;;;15.52;100.00;101738.06;5053080;28;20391;-48
2023/06/25 02:13:28;;;;;;;41.95;32.50;;;;;;;15.51;100.00;101741.50;5052522;28;20060;-47
2023/06/25 02:15:53;;;;;;;35.03;29.73;;;;;;;15.46;100.00;101739.66;5052533;28;20031;-44
2023/06/25 02:18:19;;;;;;;40.97;30.95;;;;;;;15.38;100.00;101736.00;5053087;28;20485;-44
2023/06/25 02:20:44;;;;;;;40.03;32.53;;;;;;;15.35;100.00;101738.56;5051971;28;20468;-44
2023/06/25 02:23:09;;;;;;;41.40;32.63;;;;;;;15.31;100.00;101736.69;5052689;28;20039;-44
2023/06/25 02:25:35;;;;;;;38.30;33.33;;;;;;;15.35;100.00;101730.75;5052740;28;20100;-48
2023/06/25 02:28:00;;;;;;;41.53;31.55;;;;;;;15.30;100.00;101728.03;5052407;28;20031;-48
2023/06/25 02:30:25;;;;;;;39.50;32.17;;;;;;;15.27;100.00;101724.47;5052909;28;20074;-45
2023/06/25 02:32:51;;;;;;;38.75;33.03;;;;;;;15.25;100.00;101727.03;5052854;28;20036;-48
2023/06/25 02:35:16;;;;;;;36.58;29.55;;;;;;;15.19;100.00;101723.44;5052347;28;20025;-42
2023/06/25 02:37:41;;;;;;;38.40;30.38;;;;;;;15.11;100.00;101716.31;5052198;28;20493;-44
2023/06/25 02:40:09;;;;;;;45.72;34.00;;;;;;;15.14;100.00;101719.00;5052871;28;20025;-47
2023/06/25 02:42:34;;;;;;;;;;;;;;;15.22;100.00;101713.09;5052229;28;20037;-46
2023/06/25 02:44:59;;;;;;;44.25;33.00;;;;;;;15.18;100.00;101717.34;5052403;28;19912;-44
2023/06/25 02:47:25;;;;;;;41.78;33.35;;;;;;;15.13;100.00;101712.06;5052358;28;20029;-42
2023/06/25 02:49:50;;;;;;;39.85;33.08;;;;;;;15.11;100.00;101716.31;5052123;28;20029;-45
2023/06/25 02:52:15;;;;;;;47.85;38.78;;;;;;;15.15;100.00;101706.88;5052166;28;20032;-46
2023/06/25 02:54:41;;;;;;;46.35;35.72;;;;;;;15.12;100.00;101715.47;5052137;28;20021;-46
2023/06/25 02:57:06;;;;;;;42.17;34.33;;;;;;;15.09;100.00;101712.81;5053038;28;20036;-46
2023/06/25 02:59:31;;;;;;;38.72;32.72;;;;;;;14.93;100.00;101715.88;5056147;28;20542;-44
2023/06/25 03:01:56;;;;;;;46.60;37.42;;;;;;;14.97;100.00;101707.31;5056663;28;20048;-44
2023/06/25 03:04:22;;;;;;;42.17;35.30;;;;;;;14.92;100.00;101704.59;5055914;28;20189;-42
2023/06/25 03:06:48;;;;;;;41.95;36.88;;;;;;;14.95;100.00;101708.97;5056144;28;20530;-46
2023/06/25 03:09:13;;;;;;;33.05;28.27;;;;;;;14.91;100.00;101710.63;5056295;28;20029;-44
2023/06/25 03:11:38;;;;;;;43.85;35.50;;;;;;;14.90;100.00;101710.56;5055688;28;20469;-46
2023/06/25 03:14:04;;;;;;;42.45;36.88;;;;;;;14.86;100.00;101708.75;5056008;28;20033;-44
2023/06/25 03:16:29;;;;;;;42.28;36.03;;;;;;;14.81;100.00;101709.50;5055822;28;20530;-44
2023/06/25 03:18:54;;;;;;;48.70;41.53;;;;;;;14.82;100.00;101713.88;5055636;28;20033;-46
2023/06/25 03:21:20;;;;;;;50.25;40.97;;;;;;;14.79;100.00;101703.38;5055786;28;20397;-42
2023/06/25 03:23:45;;;;;;;51.53;44.22;;;;;;;14.88;100.00;101704.47;5055888;28;20024;-45
2023/06/25 03:26:10;;;;;;;53.33;44.55;;;;;;;14.87;100.00;101706.19;5055528;28;20017;-42
2023/06/25 03:28:35;;;;;;;44.53;39.20;;;;;;;14.77;100.00;101710.28;5055928;28;20056;-44
2023/06/25 03:31:01;;;;;;;50.10;42.08;;;;;;;14.81;100.00;101704.31;5055891;28;20033;-42
2023/06/25 03:33:26;;;;;;;51.60;42.08;;;;;;;14.80;100.00;101705.16;5055383;28;20104;-42
2023/06/25 03:35:51;;;;;;;45.55;39.25;;;;;;;14.79;100.00;101700.78;5055988;28;20025;-42
2023/06/25 03:38:17;;;;;;;44.85;38.17;;;;;;;14.79;100.00;101698.19;5055251;28;20049;-45
2023/06/25 03:40:42;;;;;;;50.17;39.08;;;;;;;14.80;100.00;101694.78;5055510;28;20028;-44
2023/06/25 03:43:07;;;;;;;48.33;39.15;;;;;;;14.79;100.00;101690.41;5055818;28;20029;-43
2023/06/25 03:45:33;;;;;;;44.65;36.72;;;;;;;14.75;100.00;101693.78;5055043;28;20448;-42
2023/06/25 03:47:58;;;;;;;31.45;28.15;;;;;;;14.68;100.00;101689.28;5055570;28;20045;-45
2023/06/25 03:50:23;;;;;;;36.95;33.10;;;;;;;14.77;100.00;101684.31;5055378;28;20075;-41
2023/06/25 03:52:49;;;;;;;41.75;37.17;;;;;;;14.84;100.00;101684.50;5054977;28;20469;-42
2023/06/25 03:55:14;;;;;;;42.63;36.20;;;;;;;14.80;100.00;101684.38;5055555;28;20029;-42
2023/06/25 03:57:39;;;;;;;42.00;37.42;;;;;;;14.86;100.00;101687.97;5055313;28;20413;-41
2023/06/25 04:00:06;;;;;;;43.70;36.75;;;;;;;14.82;100.00;101693.09;5054995;28;20036;-41
2023/06/25 04:02:31;;;;;;;44.20;38.08;;;;;;;14.88;100.00;101688.91;5054765;28;20025;-45
2023/06/25 04:04:56;;;;;;;46.85;37.85;;;;;;;14.92;100.00;101691.59;5055348;28;20028;-44
2023/06/25 04:07:22;;;;;;;42.40;37.83;;;;;;;14.95;100.00;101689.09;5054727;28;20028;-47
2023/06/25 04:09:47;;;;;;;49.08;41.38;;;;;;;14.99;100.00;101692.66;5054049;28;20032;-43
2023/06/25 04:12:12;;;;;;;48.85;42.28;;;;;;;15.03;100.00;101691.91;5055363;28;20021;-46
2023/06/25 04:14:37;;;;;;;45.20;40.30;;;;;;;15.06;100.00;101686.75;5054304;28;20432;-41
2023/06/25 04:17:03;;;;;;;51.03;42.92;;;;;;;15.12;100.00;101692.13;5054866;28;20112;-42
2023/06/25 04:19:29;;;;;;;48.08;41.08;;;;;;;15.12;100.00;101686.06;5054780;28;20108;-44
2023/06/25 04:21:54;;;;;;;48.40;42.40;;;;;;;15.19;100.00;101692.28;5054335;28;20127;-46
2023/06/25 04:24:20;;;;;;;45.53;39.92;;;;;;;15.14;100.00;101690.44;5054862;28;20032;-42
2023/06/25 04:26:45;;;;;;;47.13;41.50;;;;;;;15.18;100.00;101693.09;5054559;28;20033;-45
2023/06/25 04:29:10;;;;;;;47.28;40.83;;;;;;;15.23;100.00;101694.09;5054404;28;20461;-44
2023/06/25 04:31:36;;;;;;;47.97;40.45;;;;;;;15.24;100.00;101688.06;5054423;28;20036;-43
2023/06/25 04:34:01;;;;;;;47.05;40.47;;;;;;;15.27;100.00;101686.41;5054718;28;20472;-42
2023/06/25 04:36:27;;;;;;;49.60;44.38;;;;;;;15.35;100.00;101681.41;5053685;28;20071;-42
2023/06/25 04:38:52;;;;;;;50.13;44.65;;;;;;;15.42;100.00;101685.88;5054543;28;20020;-44
2023/06/25 04:41:17;;;;;;;50.92;45.35;;;;;;;15.45;100.00;101690.28;5054868;28;20403;-42
2023/06/25 04:43:43;;;;;;;53.45;47.60;;;;;;;15.53;100.00;101693.94;5053728;28;20025;-45
2023/06/25 04:46:08;;;;;;;55.83;49.95;;;;;;;15.66;100.00;101689.91;5054767;28;20021;-43
2023/06/25 04:48:34;;;;;;;59.70;53.20;;;;;;;15.78;100.00;101692.75;5053888;28;20075;-45
2023/06/25 04:50:59;;;;;;;57.85;51.88;;;;;;;15.82;100.00;101690.25;5054283;28;20438;-47
2023/06/25 04:53:24;;;;;;;61.47;55.30;;;;;;;15.89;100.00;101687.78;5053939;28;20533;-43
2023/06/25 04:55:50;;;;;;;61.42;54.95;;;;;;;15.95;100.00;101687.06;5054046;28;20017;-42
2023/06/25 04:58:15;;;;;;;66.22;59.40;;;;;;;16.05;100.00;101689.00;5054236;28;20044;-43
2023/06/25 05:00:40;;;;;;;64.70;57.83;;;;;;;16.16;100.00;101688.34;5054116;28;20410;-43
2023/06/25 05:03:06;;;;;;;65.43;58.80;;;;;;;16.20;100.00;101688.44;5053718;28;20035;-43
2023/06/25 05:05:32;;;;;;;65.05;58.08;;;;;;;16.31;100.00;101691.25;5053816;28;20017;-45
2023/06/25 05:07:58;;;;;;;65.07;58.65;;;;;;;16.39;100.00;101694.00;5054248;28;20029;-42
2023/06/25 05:10:23;;;;;;;61.03;54.85;;;;;;;16.46;100.00;101691.56;5053332;28;20029;-47
2023/06/25 05:12:48;;;;;;;53.35;47.85;;;;;;;16.53;100.00;101686.47;5053914;28;20435;-47
2023/06/25 05:15:15;;;;;;;54.75;49.25;;;;;;;16.65;100.00;101691.88;5054114;28;20037;-43
2023/06/25 05:17:40;;;;;;;60.20;54.38;;;;;;;16.74;100.00;101692.03;5053036;28;20461;-44
2023/06/25 05:20:06;;;;;;;65.15;58.75;;;;;;;16.78;100.00;101688.66;5053669;28;20070;-43
2023/06/25 05:22:31;;;;;;;63.22;56.72;;;;;;;16.85;100.00;101692.25;5053251;28;20053;-42
2023/06/25 05:24:56;;;;;;;66.93;60.10;;;;;;;16.96;100.00;101687.25;5053222;28;20025;-45
2023/06/25 05:27:22;;;;;;;63.25;56.88;;;;;;;17.01;100.00;101684.72;5053775;28;20108;-45
2023/06/25 05:29:47;;;;;;;55.55;49.95;;;;;;;17.05;100.00;101689.97;5053613;28;20028;-42
2023/06/25 05:32:12;;;;;;;54.47;48.70;;;;;;;17.17;100.00;101686.72;5053115;28;20032;-42
2023/06/25 05:34:37;;;;;;;56.35;50.70;;;;;;;17.23;100.00;101683.31;5053228;28;20021;-43
2023/06/25 05:37:03;;;;;;;50.83;45.72;;;;;;;17.21;100.00;101690.22;5053477;28;20481;-43
2023/06/25 05:39:29;;;;;;;49.40;44.20;;;;;;;17.37;100.00;101689.63;5052656;28;20477;-44
2023/06/25 05:41:56;;;;;;;52.60;47.15;;;;;;;17.46;100.00;101691.50;5053611;28;20383;-41
2023/06/25 05:44:22;;;;;;;50.60;45.20;;;;;;;17.54;100.00;101682.03;5053576;28;20032;-46
2023/06/25 05:46:47;;;;;;;49.03;44.03;;;;;;;17.65;100.00;101679.59;5052671;28;20029;-47
2023/06/25 05:49:12;;;;;;;43.20;38.70;;;;;;;17.69;100.00;101681.38;5053349;28;20027;-41
2023/06/25 05:51:38;;;;;;;44.72;39.97;;;;;;;17.76;100.00;101680.59;5052915;28;20460;-42
2023/06/25 05:54:03;;;;;;;44.70;40.10;;;;;;;17.86;100.00;101680.75;5052449;28;20068;-42
2023/06/25 05:56:28;;;;;;;49.53;44.35;;;;;;;17.95;100.00;101675.66;5052901;28;20029;-42
2023/06/25 05:58:54;;;;;;;49.10;44.13;;;;;;;18.05;100.00;101671.41;5052815;28;20048;-43
2023/06/25 06:01:21;;;;;;;45.70;40.90;;;;;;;18.13;100.00;101676.72;5053056;28;20025;-43
2023/06/25 06:03:47;;;;;;;43.70;39.30;;;;;;;18.26;100.00;101669.06;5053008;28;20028;-42
2023/06/25 06:06:13;;;;;;;47.95;42.83;;;;;;;18.38;100.00;101665.69;5052508;28;20385;-43
2023/06/25 06:08:38;;;;;;;45.80;41.10;;;;;;;18.56;100.00;101670.22;5052713;28;20021;-44
2023/06/25 06:11:03;;;;;;;43.30;37.80;;;;;;;18.67;100.00;101664.22;5053249;28;20481;-47
2023/06/25 06:13:29;;;;;;;45.83;41.08;;;;;;;18.73;100.00;101670.41;5052143;28;20460;-42
2023/06/25 06:15:54;;;;;;;46.00;41.17;;;;;;;18.91;100.00;101674.06;5052738;28;20025;-43
2023/06/25 06:18:19;;;;;;;43.95;38.75;;;;;;;19.00;100.00;101676.75;5052901;28;20053;-42
2023/06/25 06:20:45;;;;;;;43.30;38.63;;;;;;;19.07;100.00;101670.72;5051806;28;20401;-42
2023/06/25 06:23:10;;;;;;;45.00;38.72;;;;;;;19.22;100.00;101672.56;5052845;28;20029;-46
2023/06/25 06:25:35;;;;;;;42.40;37.85;;;;;;;19.29;100.00;101676.09;5052695;28;20135;-42
2023/06/25 06:28:00;;;;;;;43.38;38.88;;;;;;;19.40;100.00;101674.41;5052611;28;20056;-43
2023/06/25 06:30:26;;;;;;;43.42;38.92;;;;;;;19.52;100.00;101677.97;5052336;28;20384;-41
2023/06/25 06:32:51;;;;;;;42.45;37.67;;;;;;;19.62;100.00;101674.53;5052353;28;20369;-45
2023/06/25 06:35:17;;;;;;;41.40;37.00;;;;;;;19.74;100.00;101679.84;5052007;28;20021;-43
2023/06/25 06:37:42;;;;;;;42.05;36.67;;;;;;;19.85;100.00;101676.44;5052248;28;20025;-44
2023/06/25 06:40:10;;;;;;;41.95;37.55;;;;;;;19.97;100.00;101670.38;5052574;28;20024;-47
2023/06/25 06:42:35;;;;;;;40.60;36.47;;;;;;;20.13;100.00;101666.03;5051742;28;20029;-45
2023/06/25 06:45:02;;;;;;;39.28;35.25;;;;;;;20.21;99.62;101669.56;5052804;28;20100;-43
2023/06/25 06:47:27;;;;;;;42.95;35.28;;;;;;;20.32;98.32;101662.63;5052246;28;20498;-43
2023/06/25 06:49:53;;;;;;;37.15;33.00;;;;;;;20.50;97.57;101660.91;5051793;28;20033;-42
2023/06/25 06:52:25;;;;;;;38.17;30.83;;;;;;;20.61;93.09;101663.53;5052427;28;20032;-43
2023/06/25 06:54:50;;;;;;;33.63;29.23;;;;;;;20.72;93.11;101667.94;5052403;28;20384;-46
2023/06/25 06:57:16;;;;;;;34.72;27.63;;;;;;;20.84;91.44;101661.84;5051943;28;20021;-42
2023/06/25 06:59:41;;;;;;;31.10;26.23;;;;;;;20.99;92.10;101660.06;5052189;28;20068;-49
2023/06/25 07:02:06;;;;;;;31.40;25.52;;;;;;;21.10;90.37;101660.94;5051907;28;20079;-44
2023/06/25 07:04:32;;;;;;;32.50;25.00;;;;;;;21.30;91.61;101660.03;5051824;28;20025;-47
2023/06/25 07:06:57;;;;;;;28.88;22.98;;;;;;;21.47;87.52;101662.59;5052534;28;20028;-45
2023/06/25 07:09:25;;;;;;;29.85;22.10;;;;;;;21.56;82.93;101657.38;5051855;28;20017;-44
2023/06/25 07:11:51;;;;;;;28.30;21.35;;;;;;;21.76;83.55;101662.56;5049453;28;20344;-46
2023/06/25 07:14:16;;;;;;;25.83;20.40;;;;;;;21.90;81.83;101661.59;5051622;28;20048;-45
2023/06/25 07:16:42;;;;;;;25.70;19.77;;;;;;;21.92;79.82;101660.72;5050324;28;20032;-44
2023/06/25 07:19:08;;;;;;;23.40;17.27;;;;;;;22.08;75.14;101660.66;5050812;28;20114;-43
2023/06/25 07:21:34;;;;;;;24.60;17.50;;;;;;;22.15;71.03;101665.00;5051757;28;20056;-48
2023/06/25 07:23:59;;;;;;;20.67;15.48;;;;;;;22.32;69.89;101657.91;5050470;28;20105;-47
2023/06/25 07:26:25;;;;;;;22.05;15.30;;;;;;;22.44;68.50;101669.22;5051801;28;20028;-42
2023/06/25 07:28:50;;;;;;;22.20;14.68;;;;;;;22.51;67.24;101670.94;5052304;28;20096;-48
2023/06/25 07:31:15;;;;;;;21.33;13.95;;;;;;;22.62;69.00;101663.84;5051606;28;20400;-47
2023/06/25 07:33:41;;;;;;;18.08;13.98;;;;;;;22.71;67.41;101662.03;5051518;28;20086;-48
2023/06/25 07:36:06;;;;;;;19.50;13.70;;;;;;;22.90;69.52;101657.50;5052391;28;20110;-46
2023/06/25 07:38:32;;;;;;;23.95;14.27;;;;;;;23.06;68.99;101660.84;5051244;28;20025;-48
2023/06/25 07:40:57;;;;;;;20.85;13.75;;;;;;;23.15;68.08;101645.00;5051877;28;20035;-45
2023/06/25 07:43:23;;;;;;;18.00;13.25;;;;;;;23.15;64.90;101659.03;5051647;28;20024;-43
2023/06/25 07:45:48;;;;;;;20.17;13.15;;;;;;;23.21;64.59;101652.81;5054514;28;20025;-42
2023/06/25 07:48:13;;;;;;;23.85;14.05;;;;;;;23.32;67.04;101650.97;5055548;28;20112;-43
2023/06/25 07:50:38;;;;;;;21.90;13.05;;;;;;;23.41;64.96;101654.38;5055391;28;20021;-48
2023/06/25 07:53:04;;;;;;;21.40;13.05;;;;;;;23.48;64.45;101656.06;5055008;28;20035;-46
2023/06/25 07:55:29;;;;;;;16.88;12.77;;;;;;;23.59;63.77;101642.75;5055489;28;20029;-49
2023/06/25 07:57:54;;;;;;;20.63;13.05;;;;;;;23.69;63.16;101649.66;5055537;28;20111;-47
2023/06/25 08:00:20;;;;;;;19.55;12.13;;;;;;;23.80;63.67;101650.41;5054877;28;20392;-49
2023/06/25 08:02:45;;;;;;;17.02;11.18;;;;;;;23.89;63.49;101651.19;5055009;28;20024;-43
2023/06/25 08:05:10;;;;;;;20.70;12.18;;;;;;;24.02;62.32;101633.50;5055259;28;20029;-43
2023/06/25 08:07:36;;;;;;;15.23;10.75;;;;;;;24.14;62.65;101646.47;5054252;28;20028;-43
2023/06/25 08:10:02;;;;;;;17.25;11.73;;;;;;;24.19;60.62;101638.50;5055164;28;20481;-43
2023/06/25 08:12:28;;;;;;;18.98;11.10;;;;;;;24.42;62.46;101638.16;5054420;28;20020;-46
2023/06/25 08:14:53;;;;;;;18.58;11.98;;;;;;;24.40;61.10;101643.47;5055102;28;20104;-47
2023/06/25 08:17:18;;;;;;;16.95;10.93;;;;;;;24.52;58.84;101641.50;5054929;28;20036;-44
2023/06/25 08:19:43;;;;;;;13.80;9.40;;;;;;;24.53;58.13;101643.25;5054350;28;20021;-47
2023/06/25 08:22:09;;;;;;;14.25;9.60;;;;;;;24.64;58.53;101636.06;5054824;28;20106;-43
2023/06/25 08:24:34;;;;;;;13.55;8.95;;;;;;;24.80;59.12;101639.31;5054759;28;20100;-43
2023/06/25 08:26:59;;;;;;;16.40;9.85;;;;;;;24.84;56.94;101638.34;5054604;28;20419;-47
2023/06/25 08:29:25;;;;;;;14.52;9.40;;;;;;;24.94;55.92;101634.66;5054411;28;20104;-43
2023/06/25 08:31:50;;;;;;;13.77;8.80;;;;;;;25.06;55.57;101637.97;5054873;28;20067;-47
2023/06/25 08:34:15;;;;;;;13.30;9.13;;;;;;;25.19;55.64;101634.22;5054365;28;20033;-45
2023/06/25 08:36:41;;;;;;;15.38;8.88;;;;;;;25.25;53.69;101627.94;5054468;28;20035;-48
2023/06/25 08:39:06;;;;;;;16.67;9.18;;;;;;;25.25;52.25;101623.53;5054882;28;20036;-43
2023/06/25 08:41:31;;;;;;;14.13;7.63;;;;;;;25.48;56.28;101623.09;5053923;28;20017;-47
2023/06/25 08:43:57;;;;;;;11.45;8.18;;;;;;;25.57;53.80;101619.41;5054395;28;20407;-47
2023/06/25 08:46:24;;;;;;;15.30;8.23;;;;;;;25.71;53.44;101626.19;5054670;28;20469;-43
2023/06/25 08:48:53;;;;;;;14.98;7.22;;;;;;;25.81;53.76;101625.09;5054035;28;20475;-47
2023/06/25 08:51:23;;;;;;;11.88;8.10;;;;;;;25.83;52.08;101625.91;5054331;28;20540;-46
2023/06/25 08:53:48;;;;;;;12.10;7.85;;;;;;;25.97;51.78;101618.53;5054402;28;20055;-45
2023/06/25 08:56:16;;;;;;;49.28;9.38;;;;;;;26.07;52.16;101618.38;5053262;28;20037;-44
2023/06/25 08:58:42;;;;;;;10.82;7.28;;;;;;;26.24;52.32;101621.50;5054039;28;20017;-46
2023/06/25 09:01:07;;;;;;;13.05;8.07;;;;;;;26.35;52.87;101613.31;5054210;28;20028;-47
2023/06/25 09:03:32;;;;;;;13.50;7.60;;;;;;;26.54;53.28;101623.44;5053172;28;20032;-43
2023/06/25 09:05:58;;;;;;;14.38;9.05;;;;;;;26.40;49.62;101615.84;5054218;28;20032;-44
2023/06/25 09:08:25;;;;;;;11.25;7.70;;;;;;;26.40;49.67;101618.47;5053919;28;20025;-46
2023/06/25 09:10:55;;;;;;;11.55;7.68;;;;;;;26.56;51.20;101619.84;5053579;28;20122;-46
2023/06/25 09:13:25;;;;;;;10.45;7.10;;;;;;;26.71;51.34;101623.00;5053980;28;20033;-45
2023/06/25 09:15:53;;;;;;;10.30;6.80;;;;;;;26.82;48.96;101607.75;5053486;28;20033;-43
2023/06/25 09:18:22;;;;;;;11.75;6.97;;;;;;;27.01;49.01;101613.44;5053931;28;20107;-45
2023/06/25 09:20:48;;;;;;;9.60;6.78;;;;;;;26.99;47.10;101617.03;5053922;28;20049;-48
2023/06/25 09:23:22;;;;;;;10.32;6.85;;;;;;;27.10;48.48;101612.28;5053397;28;20021;-43
2023/06/25 09:25:50;;;;;;;10.90;7.10;;;;;;;27.21;47.72;101609.34;5053645;28;20086;-46
2023/06/25 09:28:15;;;;;;;9.35;6.93;;;;;;;27.25;46.13;101601.25;5053685;28;20032;-46
2023/06/25 09:30:41;;;;;;;13.15;7.00;;;;;;;27.38;47.78;101601.81;5052835;28;20033;-48
2023/06/25 09:33:08;;;;;;;10.23;7.50;;;;;;;27.43;47.36;101599.03;5053578;28;20059;-44
2023/06/25 09:35:34;;;;;;;11.38;7.05;;;;;;;27.60;47.38;101601.19;5053374;28;20542;-46
2023/06/25 09:38:00;;;;;;;11.48;6.97;;;;;;;27.58;46.16;101603.03;5052738;28;20024;-47
2023/06/25 09:40:26;;;;;;;13.07;7.40;;;;;;;27.68;44.99;101601.84;5053272;28;20044;-43
2023/06/25 09:42:56;;;;;;;13.30;7.13;;;;;;;27.67;44.45;101601.88;5053436;28;20033;-46
2023/06/25 09:45:23;;;;;;;10.32;6.40;;;;;;;27.86;46.44;101603.06;5052919;28;20029;-48
2023/06/25 09:47:49;;;;;;;;;;;;;;;27.96;46.57;101595.69;5053954;28;20017;-45
2023/06/25 09:50:35;;;;;;;10.33;6.93;;;;;;;28.10;46.59;101589.97;5053571;28;19912;-48
2023/06/25 09:53:03;;;;;;;15.60;6.90;;;;;;;28.32;44.44;101594.56;5052574;28;20021;-48
2023/06/25 09:55:29;;;;;;;15.27;6.80;;;;;;;28.29;44.14;101592.00;5053132;28;20021;-49
2023/06/25 09:57:55;;;;;;;10.60;7.45;;;;;;;28.28;43.66;101587.63;5052906;28;20047;-47
2023/06/25 10:00:22;;;;;;;12.97;6.90;;;;;;;28.57;44.26;101584.00;5053221;28;20546;-47
2023/06/25 10:02:48;;;;;;;;;;;;;;;28.53;44.96;101582.38;5053451;28;20381;-43
2023/06/25 10:05:14;;;;;;;9.57;7.00;;;;;;;28.83;41.79;101580.47;5052571;28;19913;-47
2023/06/25 10:07:40;;;;;;;10.38;6.82;;;;;;;29.14;43.50;101583.78;5051776;28;20027;-48
2023/06/25 10:10:06;;;;;;;9.60;6.27;;;;;;;29.49;41.42;101578.97;5053012;28;20025;-44
2023/06/25 10:12:41;;;;;;;11.82;7.03;;;;;;;29.96;41.15;101578.91;5052190;28;20032;-44
2023/06/25 10:15:06;;;;;;;10.02;6.70;;;;;;;30.07;40.72;101578.47;5053012;28;20032;-46
2023/06/25 10:17:33;;;;;;;11.70;6.90;;;;;;;29.99;39.37;101577.94;5052599;28;20021;-44
2023/06/25 10:20:01;;;;;;;8.50;6.28;;;;;;;29.93;37.90;101573.75;5052337;28;20055;-48
2023/06/25 10:22:27;;;;;;;18.08;7.53;;;;;;;30.21;36.70;101570.81;5052100;28;20045;-48
2023/06/25 10:24:54;;;;;;;11.18;6.57;;;;;;;30.18;36.23;101573.59;5052777;28;20032;-46
2023/06/25 10:27:19;;;;;;;11.07;6.47;;;;;;;30.57;35.70;101563.16;5052158;28;20024;-43
2023/06/25 10:29:44;;;;;;;11.57;6.63;;;;;;;30.81;35.47;101567.41;5052538;28;20029;-48
2023/06/25 10:32:12;;;;;;;11.70;6.88;;;;;;;31.19;35.07;101559.53;5052727;28;20275;-48
2023/06/25 10:34:37;;;;;;;10.02;6.57;;;;;;;31.96;34.04;101557.66;5051652;28;20029;-45
2023/06/25 10:37:07;;;;;;;10.55;6.93;;;;;;;32.74;32.90;101559.97;5052676;28;20100;-46
2023/06/25 10:39:40;;;;;;;10.25;7.28;;;;;;;32.94;31.49;101558.09;5052512;28;20013;-48
2023/06/25 10:42:06;;;;;;;10.68;6.50;;;;;;;33.01;30.85;101553.25;5051789;28;20472;-48
2023/06/25 10:44:32;;;;;;;13.87;6.73;;;;;;;33.19;30.06;101549.56;5052161;28;20055;-47
2023/06/25 10:47:04;;;;;;;12.63;7.43;;;;;;;33.45;31.46;101553.50;5052660;28;20369;-47
2023/06/25 10:49:30;;;;;;;10.98;6.70;;;;;;;33.74;29.69;101547.44;5051736;28;20280;-47
2023/06/25 10:51:58;;;;;;;13.07;7.03;;;;;;;34.20;30.60;101544.78;5052833;28;20028;-47
2023/06/25 10:54:23;;;;;;;9.55;6.63;;;;;;;34.93;28.55;101551.16;5051486;28;20040;-47
2023/06/25 10:56:49;;;;;;;10.60;6.90;;;;;;;35.11;27.70;101543.78;5052432;28;20037;-49
2023/06/25 10:59:22;;;;;;;11.23;6.97;;;;;;;36.07;27.75;101543.78;5052494;28;20029;-47
2023/06/25 11:01:47;;;;;;;13.55;6.90;;;;;;;35.63;26.85;101542.25;5051567;28;20021;-46